sensor_id;sensor_type;location;lat;lon;timestamp;pressure;altitude;pressure_sealevel;temperature;humidity
41947;BME280;27638;42.184;24.848;2023-02-03T00:01:45;100098.09;;;6.39;63.54
41947;BME280;27638;42.184;24.848;2023-02-03T00:04:11;100105.03;;;6.40;63.94
41947;BME280;27638;42.184;24.848;2023-02-03T00:06:36;100098.97;;;6.28;64.47
41947;BME280;27638;42.184;24.848;2023-02-03T00:09:02;100090.50;;;6.25;64.07
41947;BME280;27638;42.184;24.848;2023-02-03T00:11:31;100101.03;;;6.25;64.91
41947;BME280;27638;42.184;24.848;2023-02-03T00:13:56;100091.34;;;6.25;64.54
41947;BME280;27638;42.184;24.848;2023-02-03T00:16:22;100111.16;;;6.29;64.57
41947;BME280;27638;42.184;24.848;2023-02-03T00:18:47;100103.72;;;6.34;64.61
41947;BME280;27638;42.184;24.848;2023-02-03T00:21:13;100114.59;;;6.41;63.89
41947;BME280;27638;42.184;24.848;2023-02-03T00:23:40;100128.06;;;6.48;63.24
41947;BME280;27638;42.184;24.848;2023-02-03T00:26:10;100116.31;;;6.52;64.17
41947;BME280;27638;42.184;24.848;2023-02-03T00:28:36;100119.59;;;6.65;63.86
41947;BME280;27638;42.184;24.848;2023-02-03T00:31:01;100117.28;;;6.71;63.32
41947;BME280;27638;42.184;24.848;2023-02-03T00:33:27;100120.50;;;6.75;62.86
41947;BME280;27638;42.184;24.848;2023-02-03T00:35:52;100112.47;;;6.77;62.24
41947;BME280;27638;42.184;24.848;2023-02-03T00:38:18;100111.00;;;6.84;63.04
41947;BME280;27638;42.184;24.848;2023-02-03T00:40:51;100109.84;;;6.77;62.59
41947;BME280;27638;42.184;24.848;2023-02-03T00:43:16;100112.28;;;6.89;61.73
41947;BME280;27638;42.184;24.848;2023-02-03T00:45:42;100119.03;;;6.82;62.19
41947;BME280;27638;42.184;24.848;2023-02-03T00:48:07;100118.97;;;6.72;62.28
41947;BME280;27638;42.184;24.848;2023-02-03T00:50:32;100115.19;;;6.65;62.78
41947;BME280;27638;42.184;24.848;2023-02-03T00:52:58;100123.06;;;6.65;62.95
41947;BME280;27638;42.184;24.848;2023-02-03T00:55:23;100125.50;;;6.57;62.96
41947;BME280;27638;42.184;24.848;2023-02-03T00:57:49;100131.84;;;6.55;63.60
41947;BME280;27638;42.184;24.848;2023-02-03T01:00:14;100126.78;;;6.42;63.25
41947;BME280;27638;42.184;24.848;2023-02-03T01:02:40;100115.53;;;6.40;63.38
41947;BME280;27638;42.184;24.848;2023-02-03T01:05:06;100131.19;;;6.42;63.55
41947;BME280;27638;42.184;24.848;2023-02-03T01:07:31;100132.44;;;6.26;63.92
41947;BME280;27638;42.184;24.848;2023-02-03T01:09:57;100135.22;;;6.25;63.73
41947;BME280;27638;42.184;24.848;2023-02-03T01:12:23;100133.63;;;6.22;64.63
41947;BME280;27638;42.184;24.848;2023-02-03T01:14:48;100135.78;;;6.17;64.53
41947;BME280;27638;42.184;24.848;2023-02-03T01:17:13;100137.25;;;6.10;65.70
41947;BME280;27638;42.184;24.848;2023-02-03T01:19:39;100124.09;;;6.10;65.83
41947;BME280;27638;42.184;24.848;2023-02-03T01:22:04;100120.19;;;6.04;66.00
41947;BME280;27638;42.184;24.848;2023-02-03T01:24:30;100122.94;;;6.03;66.31
41947;BME280;27638;42.184;24.848;2023-02-03T01:26:55;100122.94;;;6.03;66.49
41947;BME280;27638;42.184;24.848;2023-02-03T01:29:21;100123.53;;;6.06;65.98
41947;BME280;27638;42.184;24.848;2023-02-03T01:31:46;100133.06;;;6.07;65.79
41947;BME280;27638;42.184;24.848;2023-02-03T01:34:13;100134.03;;;6.06;65.54
41947;BME280;27638;42.184;24.848;2023-02-03T01:36:40;100131.28;;;6.08;66.07
41947;BME280;27638;42.184;24.848;2023-02-03T01:39:06;100142.88;;;6.05;66.06
41947;BME280;27638;42.184;24.848;2023-02-03T01:41:34;100146.81;;;6.11;65.75
41947;BME280;27638;42.184;24.848;2023-02-03T01:44:01;100141.44;;;6.13;65.27
41947;BME280;27638;42.184;24.848;2023-02-03T01:46:35;100142.63;;;6.08;65.58
41947;BME280;27638;42.184;24.848;2023-02-03T01:51:35;100137.13;;;6.12;64.84
41947;BME280;27638;42.184;24.848;2023-02-03T01:54:02;100136.78;;;6.05;64.83
41947;BME280;27638;42.184;24.848;2023-02-03T01:56:31;100129.75;;;6.05;64.63
41947;BME280;27638;42.184;24.848;2023-02-03T01:58:59;100109.31;;;5.98;64.21
41947;BME280;27638;42.184;24.848;2023-02-03T02:01:25;100132.25;;;6.07;64.59
41947;BME280;27638;42.184;24.848;2023-02-03T02:03:55;100126.63;;;6.12;64.47
41947;BME280;27638;42.184;24.848;2023-02-03T02:06:21;100137.38;;;6.08;63.78
41947;BME280;27638;42.184;24.848;2023-02-03T02:08:50;100144.09;;;6.01;64.51
41947;BME280;27638;42.184;24.848;2023-02-03T02:11:16;100143.84;;;6.04;64.15
41947;BME280;27638;42.184;24.848;2023-02-03T02:13:44;100163.47;;;5.89;65.26
41947;BME280;27638;42.184;24.848;2023-02-03T02:16:44;100161.19;;;5.96;65.46
41947;BME280;27638;42.184;24.848;2023-02-03T02:24:31;100164.28;;;6.01;66.20
41947;BME280;27638;42.184;24.848;2023-02-03T02:33:43;100163.81;;;5.96;67.29
41947;BME280;27638;42.184;24.848;2023-02-03T02:36:32;100159.38;;;5.96;67.13
41947;BME280;27638;42.184;24.848;2023-02-03T02:39:12;100157.84;;;5.94;67.96
41947;BME280;27638;42.184;24.848;2023-02-03T02:41:49;100156.41;;;6.01;67.58
41947;BME280;27638;42.184;24.848;2023-02-03T02:44:23;100161.66;;;6.01;67.74
41947;BME280;27638;42.184;24.848;2023-02-03T02:46:53;100175.03;;;5.98;68.35
41947;BME280;27638;42.184;24.848;2023-02-03T02:49:29;100175.03;;;5.98;68.07
41947;BME280;27638;42.184;24.848;2023-02-03T02:51:59;100176.34;;;6.03;68.78
41947;BME280;27638;42.184;24.848;2023-02-03T02:54:26;100182.94;;;5.98;69.08
41947;BME280;27638;42.184;24.848;2023-02-03T02:56:55;100197.75;;;5.99;69.78
41947;BME280;27638;42.184;24.848;2023-02-03T02:59:22;100204.91;;;5.97;69.63
41947;BME280;27638;42.184;24.848;2023-02-03T03:01:48;100195.94;;;5.99;69.90
41947;BME280;27638;42.184;24.848;2023-02-03T03:04:16;100203.00;;;5.99;70.23
41947;BME280;27638;42.184;24.848;2023-02-03T03:06:58;100202.88;;;6.00;70.68
41947;BME280;27638;42.184;24.848;2023-02-03T03:12:10;100206.22;;;5.91;71.31
41947;BME280;27638;42.184;24.848;2023-02-03T03:14:40;100202.25;;;5.86;71.90
41947;BME280;27638;42.184;24.848;2023-02-03T03:17:10;100213.72;;;5.85;71.36
41947;BME280;27638;42.184;24.848;2023-02-03T03:19:39;100218.16;;;5.73;72.03
41947;BME280;27638;42.184;24.848;2023-02-03T03:22:08;100219.94;;;5.72;72.75
41947;BME280;27638;42.184;24.848;2023-02-03T03:24:50;100219.13;;;5.72;72.58
41947;BME280;27638;42.184;24.848;2023-02-03T03:27:27;100212.53;;;5.66;72.62
41947;BME280;27638;42.184;24.848;2023-02-03T03:29:57;100222.94;;;5.68;72.27
41947;BME280;27638;42.184;24.848;2023-02-03T03:32:25;100234.41;;;5.67;72.40
41947;BME280;27638;42.184;24.848;2023-02-03T03:34:53;100241.22;;;5.69;72.64
41947;BME280;27638;42.184;24.848;2023-02-03T03:37:27;100238.34;;;5.72;73.29
41947;BME280;27638;42.184;24.848;2023-02-03T03:39:56;100232.84;;;5.64;73.37
41947;BME280;27638;42.184;24.848;2023-02-03T03:48:18;100240.00;;;5.51;74.27
41947;BME280;27638;42.184;24.848;2023-02-03T03:50:49;100242.25;;;5.44;74.36
41947;BME280;27638;42.184;24.848;2023-02-03T03:53:17;100243.94;;;5.45;74.51
41947;BME280;27638;42.184;24.848;2023-02-03T03:55:47;100242.84;;;5.48;74.13
41947;BME280;27638;42.184;24.848;2023-02-03T03:58:18;100237.97;;;5.55;73.83
41947;BME280;27638;42.184;24.848;2023-02-03T04:00:46;100255.28;;;5.68;73.65
41947;BME280;27638;42.184;24.848;2023-02-03T04:03:15;100247.28;;;5.70;72.54
41947;BME280;27638;42.184;24.848;2023-02-03T04:05:41;100252.44;;;5.60;72.85
41947;BME280;27638;42.184;24.848;2023-02-03T04:08:07;100259.94;;;5.54;73.00
41947;BME280;27638;42.184;24.848;2023-02-03T04:10:35;100257.06;;;5.57;72.46
41947;BME280;27638;42.184;24.848;2023-02-03T04:13:01;100252.41;;;5.49;72.71
41947;BME280;27638;42.184;24.848;2023-02-03T04:15:28;100253.13;;;5.51;72.86
41947;BME280;27638;42.184;24.848;2023-02-03T04:17:54;100254.56;;;5.55;72.06
41947;BME280;27638;42.184;24.848;2023-02-03T04:20:22;100246.22;;;5.50;72.29
41947;BME280;27638;42.184;24.848;2023-02-03T04:22:47;100239.97;;;5.40;72.99
41947;BME280;27638;42.184;24.848;2023-02-03T04:25:12;100240.59;;;5.43;72.66
41947;BME280;27638;42.184;24.848;2023-02-03T04:27:38;100248.94;;;5.37;72.61
41947;BME280;27638;42.184;24.848;2023-02-03T04:30:04;100250.84;;;5.35;72.80
41947;BME280;27638;42.184;24.848;2023-02-03T04:32:30;100242.97;;;5.35;72.26
41947;BME280;27638;42.184;24.848;2023-02-03T04:34:56;100239.84;;;5.30;72.60
41947;BME280;27638;42.184;24.848;2023-02-03T04:37:22;100244.38;;;5.28;72.53
41947;BME280;27638;42.184;24.848;2023-02-03T04:39:48;100248.31;;;5.34;72.30
41947;BME280;27638;42.184;24.848;2023-02-03T04:42:16;100255.84;;;5.38;71.73
41947;BME280;27638;42.184;24.848;2023-02-03T04:44:42;100252.88;;;5.43;71.47
41947;BME280;27638;42.184;24.848;2023-02-03T04:47:07;100245.34;;;5.38;71.35
41947;BME280;27638;42.184;24.848;2023-02-03T04:49:32;100242.59;;;5.40;71.69
41947;BME280;27638;42.184;24.848;2023-02-03T04:51:58;100241.88;;;5.38;71.20
41947;BME280;27638;42.184;24.848;2023-02-03T04:54:23;100245.47;;;5.37;71.29
41947;BME280;27638;42.184;24.848;2023-02-03T04:56:49;100245.47;;;5.37;71.45
41947;BME280;27638;42.184;24.848;2023-02-03T04:59:14;100249.16;;;5.34;71.45
41947;BME280;27638;42.184;24.848;2023-02-03T05:01:39;100254.41;;;5.34;70.88
41947;BME280;27638;42.184;24.848;2023-02-03T05:04:05;100262.41;;;5.33;71.42
41947;BME280;27638;42.184;24.848;2023-02-03T05:06:30;100267.53;;;5.34;71.00
41947;BME280;27638;42.184;24.848;2023-02-03T05:08:59;100275.19;;;5.37;70.91
41947;BME280;27638;42.184;24.848;2023-02-03T05:11:25;100262.03;;;5.26;71.02
41947;BME280;27638;42.184;24.848;2023-02-03T05:13:50;100276.88;;;5.38;70.84
41947;BME280;27638;42.184;24.848;2023-02-03T05:16:16;100272.34;;;5.40;70.44
41947;BME280;27638;42.184;24.848;2023-02-03T05:18:41;100271.16;;;5.44;70.44
41947;BME280;27638;42.184;24.848;2023-02-03T05:21:07;100272.69;;;5.36;70.01
41947;BME280;27638;42.184;24.848;2023-02-03T05:23:32;100277.28;;;5.21;70.70
41947;BME280;27638;42.184;24.848;2023-02-03T05:25:58;100279.75;;;5.11;70.86
41947;BME280;27638;42.184;24.848;2023-02-03T05:28:23;100278.41;;;5.06;71.40
41947;BME280;27638;42.184;24.848;2023-02-03T05:30:49;100276.63;;;5.06;71.41
41947;BME280;27638;42.184;24.848;2023-02-03T05:33:14;100279.47;;;5.03;71.36
41947;BME280;27638;42.184;24.848;2023-02-03T05:35:40;100271.56;;;4.92;71.89
41947;BME280;27638;42.184;24.848;2023-02-03T05:38:05;100279.66;;;4.89;71.72
41947;BME280;27638;42.184;24.848;2023-02-03T05:40:31;100283.34;;;4.87;71.93
41947;BME280;27638;42.184;24.848;2023-02-03T05:43:15;100281.81;;;4.95;71.19
41947;BME280;27638;42.184;24.848;2023-02-03T05:45:40;100282.56;;;4.97;70.99
41947;BME280;27638;42.184;24.848;2023-02-03T05:48:06;100286.28;;;5.06;70.56
41947;BME280;27638;42.184;24.848;2023-02-03T05:50:31;100289.03;;;5.04;70.17
41947;BME280;27638;42.184;24.848;2023-02-03T05:53:05;100282.56;;;4.97;70.32
41947;BME280;27638;42.184;24.848;2023-02-03T05:55:31;100302.94;;;4.94;70.52
41947;BME280;27638;42.184;24.848;2023-02-03T05:57:56;100304.22;;;4.88;70.99
41947;BME280;27638;42.184;24.848;2023-02-03T06:00:23;100308.13;;;4.82;70.84
41947;BME280;27638;42.184;24.848;2023-02-03T06:02:51;100312.53;;;4.82;70.96
41947;BME280;27638;42.184;24.848;2023-02-03T06:05:17;100312.75;;;4.79;70.97
41947;BME280;27638;42.184;24.848;2023-02-03T06:07:42;100314.78;;;4.75;71.13
41947;BME280;27638;42.184;24.848;2023-02-03T06:10:08;100325.16;;;4.77;70.55
41947;BME280;27638;42.184;24.848;2023-02-03T06:12:34;100325.50;;;4.72;70.32
41947;BME280;27638;42.184;24.848;2023-02-03T06:14:59;100340.22;;;4.86;70.78
41947;BME280;27638;42.184;24.848;2023-02-03T06:17:24;100345.16;;;4.91;70.03
41947;BME280;27638;42.184;24.848;2023-02-03T06:19:50;100345.88;;;4.93;69.79
41947;BME280;27638;42.184;24.848;2023-02-03T06:22:15;100351.97;;;4.93;69.58
41947;BME280;27638;42.184;24.848;2023-02-03T06:24:41;100357.09;;;4.95;69.67
41947;BME280;27638;42.184;24.848;2023-02-03T06:27:06;100362.13;;;4.98;69.67
41947;BME280;27638;42.184;24.848;2023-02-03T06:29:31;100366.81;;;5.05;68.52
41947;BME280;27638;42.184;24.848;2023-02-03T06:31:57;100382.72;;;5.15;68.79
41947;BME280;27638;42.184;24.848;2023-02-03T06:34:22;100371.28;;;5.16;67.90
41947;BME280;27638;42.184;24.848;2023-02-03T06:36:48;100379.34;;;5.26;68.26
41947;BME280;27638;42.184;24.848;2023-02-03T06:39:13;100377.34;;;5.29;67.74
41947;BME280;27638;42.184;24.848;2023-02-03T06:41:39;100387.63;;;5.32;67.39
41947;BME280;27638;42.184;24.848;2023-02-03T06:44:04;100390.34;;;5.31;67.32
41947;BME280;27638;42.184;24.848;2023-02-03T06:46:29;100396.34;;;5.33;67.58
41947;BME280;27638;42.184;24.848;2023-02-03T06:48:55;100401.97;;;5.39;67.48
41947;BME280;27638;42.184;24.848;2023-02-03T06:51:21;100408.66;;;5.43;66.91
41947;BME280;27638;42.184;24.848;2023-02-03T06:53:49;100397.94;;;5.47;65.78
41947;BME280;27638;42.184;24.848;2023-02-03T06:56:14;100408.09;;;5.51;65.61
41947;BME280;27638;42.184;24.848;2023-02-03T06:58:39;100415.69;;;5.67;65.21
41947;BME280;27638;42.184;24.848;2023-02-03T07:01:05;100398.41;;;5.87;65.12
41947;BME280;27638;42.184;24.848;2023-02-03T07:03:30;100396.56;;;6.00;64.76
41947;BME280;27638;42.184;24.848;2023-02-03T07:05:56;100396.59;;;6.11;64.42
41947;BME280;27638;42.184;24.848;2023-02-03T07:08:21;100393.38;;;6.19;63.38
41947;BME280;27638;42.184;24.848;2023-02-03T07:10:46;100395.19;;;6.29;63.31
41947;BME280;27638;42.184;24.848;2023-02-03T07:13:12;100391.25;;;6.46;62.94
41947;BME280;27638;42.184;24.848;2023-02-03T07:15:37;100391.00;;;6.60;62.46
41947;BME280;27638;42.184;24.848;2023-02-03T07:18:03;100396.00;;;6.75;61.48
41947;BME280;27638;42.184;24.848;2023-02-03T07:20:28;100399.94;;;6.91;61.27
41947;BME280;27638;42.184;24.848;2023-02-03T07:22:56;100404.47;;;7.00;60.56
41947;BME280;27638;42.184;24.848;2023-02-03T07:25:23;100414.13;;;7.11;60.62
41947;BME280;27638;42.184;24.848;2023-02-03T07:27:48;100411.28;;;7.03;59.58
41947;BME280;27638;42.184;24.848;2023-02-03T07:30:14;100425.25;;;7.15;59.68
41947;BME280;27638;42.184;24.848;2023-02-03T07:32:40;100431.94;;;7.30;59.37
41947;BME280;27638;42.184;24.848;2023-02-03T07:35:06;100423.81;;;7.33;58.24
41947;BME280;27638;42.184;24.848;2023-02-03T07:37:32;100423.56;;;7.36;58.42
41947;BME280;27638;42.184;24.848;2023-02-03T07:39:58;100433.72;;;7.41;58.60
41947;BME280;27638;42.184;24.848;2023-02-03T07:42:23;100428.44;;;7.41;57.58
41947;BME280;27638;42.184;24.848;2023-02-03T07:44:48;100441.97;;;7.47;57.70
41947;BME280;27638;42.184;24.848;2023-02-03T07:47:14;100438.44;;;7.58;57.79
41947;BME280;27638;42.184;24.848;2023-02-03T07:49:39;100436.38;;;7.61;57.23
41947;BME280;27638;42.184;24.848;2023-02-03T07:52:05;100438.06;;;7.62;56.52
41947;BME280;27638;42.184;24.848;2023-02-03T07:54:30;100442.78;;;7.80;56.56
41947;BME280;27638;42.184;24.848;2023-02-03T07:56:55;100443.50;;;7.82;56.62
41947;BME280;27638;42.184;24.848;2023-02-03T07:59:21;100444.56;;;7.79;56.85
41947;BME280;27638;42.184;24.848;2023-02-03T08:01:46;100445.59;;;7.67;56.34
41947;BME280;27638;42.184;24.848;2023-02-03T08:04:12;100437.38;;;7.81;56.36
41947;BME280;27638;42.184;24.848;2023-02-03T08:06:44;100440.28;;;7.78;56.45
41947;BME280;27638;42.184;24.848;2023-02-03T08:09:09;100439.88;;;7.83;57.46
41947;BME280;27638;42.184;24.848;2023-02-03T08:11:34;100445.81;;;7.96;56.44
41947;BME280;27638;42.184;24.848;2023-02-03T08:14:00;100441.69;;;8.03;56.52
41947;BME280;27638;42.184;24.848;2023-02-03T08:16:25;100444.97;;;8.16;57.02
41947;BME280;27638;42.184;24.848;2023-02-03T08:18:51;100444.06;;;8.27;56.65
41947;BME280;27638;42.184;24.848;2023-02-03T08:21:17;100447.31;;;8.51;57.12
41947;BME280;27638;42.184;24.848;2023-02-03T08:23:42;100443.53;;;8.44;54.30
41947;BME280;27638;42.184;24.848;2023-02-03T08:26:08;100435.03;;;8.41;53.18
41947;BME280;27638;42.184;24.848;2023-02-03T08:28:33;100431.72;;;8.27;54.54
41947;BME280;27638;42.184;24.848;2023-02-03T08:30:58;100423.91;;;8.26;53.07
41947;BME280;27638;42.184;24.848;2023-02-03T08:33:24;100438.06;;;8.36;52.24
41947;BME280;27638;42.184;24.848;2023-02-03T08:35:49;100440.72;;;8.25;53.16
41947;BME280;27638;42.184;24.848;2023-02-03T08:38:15;100447.16;;;8.32;53.60
41947;BME280;27638;42.184;24.848;2023-02-03T08:40:41;100442.25;;;8.39;54.11
41947;BME280;27638;42.184;24.848;2023-02-03T08:43:07;100447.88;;;8.55;55.29
41947;BME280;27638;42.184;24.848;2023-02-03T08:45:32;100448.09;;;8.73;53.06
41947;BME280;27638;42.184;24.848;2023-02-03T08:47:58;100448.41;;;8.79;53.02
41947;BME280;27638;42.184;24.848;2023-02-03T08:50:23;100451.88;;;8.80;52.94
41947;BME280;27638;42.184;24.848;2023-02-03T08:52:48;100459.22;;;8.76;52.36
41947;BME280;27638;42.184;24.848;2023-02-03T08:55:14;100454.13;;;8.84;52.20
41947;BME280;27638;42.184;24.848;2023-02-03T08:57:39;100459.84;;;8.89;51.54
41947;BME280;27638;42.184;24.848;2023-02-03T09:00:07;100451.78;;;8.91;52.77
41947;BME280;27638;42.184;24.848;2023-02-03T09:02:33;100458.31;;;8.96;51.36
41947;BME280;27638;42.184;24.848;2023-02-03T09:04:59;100454.56;;;8.89;48.95
41947;BME280;27638;42.184;24.848;2023-02-03T09:07:24;100459.44;;;8.94;48.54
41947;BME280;27638;42.184;24.848;2023-02-03T09:09:50;100457.75;;;8.93;48.33
41947;BME280;27638;42.184;24.848;2023-02-03T09:12:15;100462.94;;;9.04;49.04
41947;BME280;27638;42.184;24.848;2023-02-03T09:14:41;100456.16;;;9.11;49.21
41947;BME280;27638;42.184;24.848;2023-02-03T09:17:08;100460.47;;;9.12;49.93
41947;BME280;27638;42.184;24.848;2023-02-03T09:19:34;100458.38;;;9.16;49.54
41947;BME280;27638;42.184;24.848;2023-02-03T09:22:00;100471.63;;;9.25;47.58
41947;BME280;27638;42.184;24.848;2023-02-03T09:24:26;100462.81;;;9.06;48.72
41947;BME280;27638;42.184;24.848;2023-02-03T09:26:52;100465.03;;;9.10;47.31
41947;BME280;27638;42.184;24.848;2023-02-03T09:29:19;100460.59;;;9.11;46.99
41947;BME280;27638;42.184;24.848;2023-02-03T09:31:44;100461.78;;;8.87;47.08
41947;BME280;27638;42.184;24.848;2023-02-03T09:34:13;100460.13;;;8.96;47.06
41947;BME280;27638;42.184;24.848;2023-02-03T09:36:38;100449.19;;;9.10;47.33
41947;BME280;27638;42.184;24.848;2023-02-03T09:39:04;100440.66;;;8.97;47.33
41947;BME280;27638;42.184;24.848;2023-02-03T09:47:12;100429.88;;;9.19;47.62
41947;BME280;27638;42.184;24.848;2023-02-03T09:49:49;100432.53;;;9.19;46.81
41947;BME280;27638;42.184;24.848;2023-02-03T09:52:30;100442.13;;;9.20;45.87
41947;BME280;27638;42.184;24.848;2023-02-03T10:00:43;100448.97;;;8.83;45.14
41947;BME280;27638;42.184;24.848;2023-02-03T10:06:14;100459.31;;;9.05;45.22
41947;BME280;27638;42.184;24.848;2023-02-03T10:11:45;100456.88;;;9.23;44.75
41947;BME280;27638;42.184;24.848;2023-02-03T10:14:37;100452.75;;;9.40;45.01
41947;BME280;27638;42.184;24.848;2023-02-03T10:17:18;100459.84;;;9.49;42.64
41947;BME280;27638;42.184;24.848;2023-02-03T10:19:54;100460.69;;;9.59;43.88
41947;BME280;27638;42.184;24.848;2023-02-03T10:22:24;100456.53;;;9.66;42.88
41947;BME280;27638;42.184;24.848;2023-02-03T10:27:21;100457.38;;;9.86;41.60
41947;BME280;27638;42.184;24.848;2023-02-03T10:32:23;100445.53;;;9.61;42.44
41947;BME280;27638;42.184;24.848;2023-02-03T10:34:50;100446.50;;;9.70;42.58
41947;BME280;27638;42.184;24.848;2023-02-03T10:39:51;100433.69;;;9.46;41.05
41947;BME280;27638;42.184;24.848;2023-02-03T10:42:18;100428.66;;;9.33;41.73
41947;BME280;27638;42.184;24.848;2023-02-03T10:44:56;100422.06;;;9.08;42.79
41947;BME280;27638;42.184;24.848;2023-02-03T10:47:32;100416.50;;;9.11;43.34
41947;BME280;27638;42.184;24.848;2023-02-03T10:50:03;100414.00;;;9.10;42.12
41947;BME280;27638;42.184;24.848;2023-02-03T10:52:33;100404.28;;;9.10;42.19
41947;BME280;27638;42.184;24.848;2023-02-03T10:57:52;100403.00;;;8.95;42.96
41947;BME280;27638;42.184;24.848;2023-02-03T11:02:57;100409.53;;;8.91;42.47
41947;BME280;27638;42.184;24.848;2023-02-03T11:05:26;100398.69;;;8.94;43.43
41947;BME280;27638;42.184;24.848;2023-02-03T11:07:52;100417.34;;;9.12;42.93
41947;BME280;27638;42.184;24.848;2023-02-03T11:23:51;100409.19;;;9.92;39.20
41947;BME280;27638;42.184;24.848;2023-02-03T11:26:21;100408.50;;;9.80;38.82
41947;BME280;27638;42.184;24.848;2023-02-03T11:28:50;100404.59;;;9.84;39.11
41947;BME280;27638;42.184;24.848;2023-02-03T11:31:18;100397.59;;;10.03;40.54
41947;BME280;27638;42.184;24.848;2023-02-03T11:34:05;100393.59;;;9.89;39.39
41947;BME280;27638;42.184;24.848;2023-02-03T11:36:33;100400.16;;;9.66;39.12
41947;BME280;27638;42.184;24.848;2023-02-03T11:41:44;100392.22;;;9.85;39.30
41947;BME280;27638;42.184;24.848;2023-02-03T11:46:47;100393.34;;;9.73;39.68
41947;BME280;27638;42.184;24.848;2023-02-03T11:49:27;100387.91;;;9.84;39.37
41947;BME280;27638;42.184;24.848;2023-02-03T11:54:46;100383.88;;;9.70;39.54
41947;BME280;27638;42.184;24.848;2023-02-03T12:13:09;100333.50;;;9.62;36.98
41947;BME280;27638;42.184;24.848;2023-02-03T12:23:52;100318.47;;;9.72;38.46
41947;BME280;27638;42.184;24.848;2023-02-03T12:26:27;100319.03;;;9.56;37.95
41947;BME280;27638;42.184;24.848;2023-02-03T12:34:27;100327.38;;;9.33;40.35
41947;BME280;27638;42.184;24.848;2023-02-03T12:42:11;100332.41;;;9.45;39.15
41947;BME280;27638;42.184;24.848;2023-02-03T12:44:53;100334.22;;;9.54;39.18
41947;BME280;27638;42.184;24.848;2023-02-03T12:47:26;100328.34;;;9.60;38.60
41947;BME280;27638;42.184;24.848;2023-02-03T12:50:34;100331.97;;;9.69;39.58
41947;BME280;27638;42.184;24.848;2023-02-03T12:53:19;100330.28;;;9.68;38.72
41947;BME280;27638;42.184;24.848;2023-02-03T12:55:58;100322.91;;;9.72;38.78
41947;BME280;27638;42.184;24.848;2023-02-03T12:58:45;100320.31;;;9.52;38.93
41947;BME280;27638;42.184;24.848;2023-02-03T13:06:26;100312.47;;;9.70;39.29
41947;BME280;27638;42.184;24.848;2023-02-03T13:12:00;100303.31;;;9.65;38.62
41947;BME280;27638;42.184;24.848;2023-02-03T13:14:35;100301.09;;;9.60;38.75
41947;BME280;27638;42.184;24.848;2023-02-03T13:17:10;100303.44;;;9.73;39.10
41947;BME280;27638;42.184;24.848;2023-02-03T13:19:44;100310.38;;;9.74;39.39
41947;BME280;27638;42.184;24.848;2023-02-03T13:22:12;100313.03;;;9.74;39.86
41947;BME280;27638;42.184;24.848;2023-02-03T13:24:41;100303.28;;;9.74;40.40
41947;BME280;27638;42.184;24.848;2023-02-03T13:30:13;100297.03;;;9.66;39.84
41947;BME280;27638;42.184;24.848;2023-02-03T13:38:29;100289.28;;;9.54;40.22
41947;BME280;27638;42.184;24.848;2023-02-03T13:43:38;100294.41;;;9.56;38.37
41947;BME280;27638;42.184;24.848;2023-02-03T13:46:16;100286.59;;;9.64;38.43
41947;BME280;27638;42.184;24.848;2023-02-03T13:48:43;100282.41;;;9.71;38.20
41947;BME280;27638;42.184;24.848;2023-02-03T13:51:30;100276.44;;;9.69;38.36
41947;BME280;27638;42.184;24.848;2023-02-03T13:54:04;100278.09;;;9.70;37.73
41947;BME280;27638;42.184;24.848;2023-02-03T13:56:32;100277.41;;;9.68;37.69
41947;BME280;27638;42.184;24.848;2023-02-03T14:01:40;100272.25;;;9.76;36.85
41947;BME280;27638;42.184;24.848;2023-02-03T14:04:07;100274.59;;;9.79;36.60
41947;BME280;27638;42.184;24.848;2023-02-03T14:11:44;100268.56;;;9.50;35.57
41947;BME280;27638;42.184;24.848;2023-02-03T14:19:00;100262.72;;;9.27;35.84
41947;BME280;27638;42.184;24.848;2023-02-03T14:21:28;100262.44;;;9.20;35.65
41947;BME280;27638;42.184;24.848;2023-02-03T14:24:07;100258.69;;;9.23;36.34
41947;BME280;27638;42.184;24.848;2023-02-03T14:26:36;100268.84;;;9.18;36.29
41947;BME280;27638;42.184;24.848;2023-02-03T14:29:03;100263.81;;;9.24;36.38
41947;BME280;27638;42.184;24.848;2023-02-03T14:31:30;100258.13;;;9.10;37.11
41947;BME280;27638;42.184;24.848;2023-02-03T14:36:43;100276.78;;;9.08;37.83
41947;BME280;27638;42.184;24.848;2023-02-03T14:45:21;100286.63;;;9.16;36.19
41947;BME280;27638;42.184;24.848;2023-02-03T14:50:34;100290.25;;;9.05;36.26
41947;BME280;27638;42.184;24.848;2023-02-03T14:53:14;100288.31;;;8.98;35.90
41947;BME280;27638;42.184;24.848;2023-02-03T14:58:35;100292.88;;;8.76;35.76
41947;BME280;27638;42.184;24.848;2023-02-03T15:01:03;100285.66;;;8.69;35.64
41947;BME280;27638;42.184;24.848;2023-02-03T15:03:29;100279.66;;;8.57;35.18
41947;BME280;27638;42.184;24.848;2023-02-03T15:06:03;100290.06;;;8.58;34.96
41947;BME280;27638;42.184;24.848;2023-02-03T15:08:44;100287.13;;;8.52;34.70
41947;BME280;27638;42.184;24.848;2023-02-03T15:11:41;100289.75;;;8.42;35.35
41947;BME280;27638;42.184;24.848;2023-02-03T15:14:28;100291.97;;;8.37;35.62
41947;BME280;27638;42.184;24.848;2023-02-03T15:16:59;100287.06;;;8.32;36.06
41947;BME280;27638;42.184;24.848;2023-02-03T15:19:34;100296.88;;;8.30;36.15
41947;BME280;27638;42.184;24.848;2023-02-03T15:22:26;100291.72;;;8.19;36.60
41947;BME280;27638;42.184;24.848;2023-02-03T15:24:54;100296.69;;;8.34;36.90
41947;BME280;27638;42.184;24.848;2023-02-03T15:27:26;100298.38;;;8.23;37.12
41947;BME280;27638;42.184;24.848;2023-02-03T15:29:52;100289.88;;;8.10;37.45
41947;BME280;27638;42.184;24.848;2023-02-03T15:32:29;100290.88;;;8.19;36.82
41947;BME280;27638;42.184;24.848;2023-02-03T15:34:57;100294.31;;;8.10;37.37